createdAt,value
2019-02-08T00:05:50.733Z,96444.73
2019-02-08T00:08:20.826Z,96447.42
2019-02-08T00:11:29.577Z,96443.34
2019-02-08T00:14:12.000Z,96444.80
2019-02-08T00:17:01.724Z,96443.45
2019-02-08T00:19:44.223Z,96419.55
2019-02-08T00:22:34.227Z,96447.44
2019-02-08T00:25:24.594Z,96450.78
2019-02-08T00:28:07.048Z,96457.44
2019-02-08T00:30:58.242Z,96459.45
2019-02-08T00:33:41.103Z,96458.10
2019-02-08T00:36:30.822Z,96461.80
2019-02-08T00:42:12.687Z,96465.56
2019-02-08T00:48:08.235Z,96462.04
2019-02-08T00:50:55.485Z,96458.41
2019-02-08T00:53:38.711Z,96434.95
2019-02-08T00:56:28.547Z,96449.39
2019-02-08T00:59:18.402Z,96452.66
2019-02-08T01:02:08.957Z,96455.31
2019-02-08T01:04:52.869Z,96454.06
2019-02-08T01:07:42.688Z,96441.86
2019-02-08T01:10:32.646Z,96453.55
2019-02-08T01:13:18.126Z,96452.16
2019-02-08T01:16:01.550Z,96455.48
2019-02-08T01:18:51.328Z,96452.73
2019-02-08T01:21:41.188Z,96456.13
2019-02-08T01:24:30.922Z,96465.98
2019-02-08T01:27:13.386Z,96467.33
2019-02-08T01:30:03.275Z,96466.23
2019-02-08T01:32:53.038Z,96458.72
2019-02-08T01:35:42.804Z,96454.94
2019-02-08T01:38:32.579Z,96457.47
2019-02-08T01:41:22.387Z,96453.07
2019-02-08T01:44:12.108Z,96443.70
2019-02-08T01:47:20.662Z,96446.84
2019-02-08T01:50:03.007Z,96438.88
2019-02-08T01:52:52.820Z,96447.17
2019-02-08T01:55:42.525Z,96458.44
2019-02-08T01:58:32.268Z,96458.52
2019-02-08T02:01:14.229Z,96453.88
2019-02-08T02:04:04.066Z,96453.75
2019-02-08T02:09:57.500Z,96447.78
2019-02-08T02:12:39.625Z,96451.13
2019-02-08T02:15:29.436Z,96450.89
2019-02-08T02:18:19.170Z,96446.95
2019-02-08T02:21:09.014Z,96449.63
2019-02-08T02:23:58.802Z,96451.88
2019-02-08T02:29:45.231Z,96462.27
2019-02-08T02:32:34.954Z,96462.34
2019-02-08T02:35:18.939Z,96466.20
2019-02-08T02:38:08.852Z,96465.41
2019-02-08T02:40:50.879Z,96468.41
2019-02-08T02:43:40.592Z,96475.77
2019-02-08T02:46:22.797Z,96474.06
2019-02-08T02:49:12.496Z,96477.95
2019-02-08T02:51:55.294Z,96480.72
2019-02-08T02:54:45.064Z,96482.02
2019-02-08T02:57:27.395Z,96473.63
2019-02-08T03:00:29.531Z,96475.52
2019-02-08T03:03:12.879Z,96452.42
2019-02-08T03:06:02.575Z,96478.58
2019-02-08T03:08:45.277Z,96453.17
2019-02-08T03:11:35.398Z,96471.84
2019-02-08T03:14:17.474Z,96461.19
2019-02-08T03:17:07.207Z,96460.24
2019-02-08T03:19:56.937Z,96450.05
2019-02-08T03:22:46.824Z,96465.47
2019-02-08T03:25:37.208Z,96452.46
2019-02-08T03:28:27.006Z,96455.70
2019-02-08T03:31:16.812Z,96432.59
2019-02-08T03:34:06.607Z,96455.05
2019-02-08T03:36:56.385Z,96462.23
2019-02-08T03:39:46.270Z,96468.29
2019-02-08T03:42:36.031Z,96472.20
2019-02-08T03:48:20.183Z,96458.50
2019-02-08T03:51:10.000Z,96457.37
2019-02-08T03:53:59.816Z,96433.36
2019-02-08T03:56:49.639Z,96459.67
2019-02-08T03:59:39.422Z,96462.38
2019-02-08T04:02:29.279Z,96464.45
2019-02-08T04:05:19.143Z,96462.25
2019-02-08T04:08:08.989Z,96460.94
2019-02-08T04:10:58.807Z,96454.56
2019-02-08T04:13:48.579Z,96452.53
2019-02-08T04:16:38.516Z,96452.69
2019-02-08T04:19:28.267Z,96449.70
2019-02-08T04:22:18.064Z,96428.42
2019-02-08T04:25:08.607Z,96446.24
2019-02-08T04:27:58.487Z,96453.20
2019-02-08T04:30:48.262Z,96443.27
2019-02-08T04:36:46.101Z,96443.95
2019-02-08T04:39:29.005Z,96434.95
2019-02-08T04:42:18.778Z,96442.30
2019-02-08T04:45:09.385Z,96434.34
2019-02-08T04:47:59.218Z,96434.18
2019-02-08T04:50:49.017Z,96443.29
2019-02-08T04:53:38.801Z,96425.86
2019-02-08T04:56:28.702Z,96429.52
2019-02-08T04:59:18.472Z,96453.15
2019-02-08T05:02:08.263Z,96448.87
2019-02-08T05:04:58.053Z,96448.06
2019-02-08T05:07:47.922Z,96444.09
2019-02-08T05:10:37.674Z,96441.05
2019-02-08T05:13:27.463Z,96443.42
2019-02-08T05:16:10.066Z,96440.14
2019-02-08T05:18:59.810Z,96448.66
2019-02-08T05:22:08.363Z,96439.44
2019-02-08T05:24:58.081Z,96442.51
2019-02-08T05:27:44.361Z,96437.84
2019-02-08T05:30:35.240Z,96437.22
2019-02-08T05:33:18.105Z,96431.88
2019-02-08T05:39:10.002Z,96426.75
2019-02-08T05:41:59.698Z,96431.96
2019-02-08T05:44:41.859Z,96413.06
2019-02-08T05:47:31.528Z,96431.48
2019-02-08T05:50:15.298Z,96429.28
2019-02-08T05:55:59.973Z,96429.16
2019-02-08T05:58:49.754Z,96442.65
2019-02-08T06:01:39.640Z,96419.45
2019-02-08T06:04:29.706Z,96441.09
2019-02-08T06:07:19.424Z,96437.44
2019-02-08T06:10:02.454Z,96443.84
2019-02-08T06:12:52.310Z,96438.70
2019-02-08T06:15:42.329Z,96429.94
2019-02-08T06:18:32.018Z,96438.33
2019-02-08T06:21:14.244Z,96412.21
2019-02-08T06:24:04.022Z,96432.17
2019-02-08T06:26:46.448Z,96431.45
2019-02-08T06:29:36.647Z,96404.93
2019-02-08T06:32:26.386Z,96431.58
2019-02-08T06:35:49.145Z,96435.06
2019-02-08T06:38:32.703Z,96441.84
2019-02-08T06:41:22.564Z,96439.00
2019-02-08T06:44:12.332Z,96442.61
2019-02-08T06:47:02.026Z,96435.09
2019-02-08T06:49:48.558Z,96444.91
2019-02-08T06:52:30.690Z,96442.74
2019-02-08T06:55:20.500Z,96450.39
2019-02-08T06:58:22.338Z,96446.98
2019-02-08T07:01:30.931Z,96451.63
2019-02-08T07:04:39.582Z,96430.59
2019-02-08T07:07:48.193Z,96416.72
2019-02-08T07:10:56.898Z,96440.39
2019-02-08T07:14:13.387Z,96438.91
2019-02-08T07:17:11.245Z,96438.75
2019-02-08T07:20:19.868Z,96431.70
2019-02-08T07:23:28.480Z,96426.48
2019-02-08T07:26:37.132Z,96437.86
2019-02-08T07:33:03.138Z,96432.70
2019-02-08T07:36:04.616Z,96435.94
2019-02-08T07:42:15.914Z,96441.63
2019-02-08T07:45:06.221Z,96446.17
2019-02-08T07:48:14.796Z,96440.98
2019-02-08T07:51:23.417Z,96444.38
2019-02-08T07:54:24.270Z,96439.64
2019-02-08T07:57:32.841Z,96428.16
2019-02-08T08:04:01.493Z,96437.09
2019-02-08T08:07:08.665Z,96435.10
2019-02-08T08:10:13.099Z,96439.89
2019-02-08T08:13:21.657Z,96446.91
2019-02-08T08:16:26.077Z,96446.17
2019-02-08T08:19:55.239Z,96436.09
2019-02-08T08:22:56.189Z,96430.56
2019-02-08T08:26:25.460Z,96435.57
2019-02-08T08:29:28.121Z,96422.72
2019-02-08T08:35:53.833Z,96441.45
2019-02-08T08:39:21.745Z,96448.98
2019-02-08T08:42:24.311Z,96450.98
2019-02-08T08:45:52.233Z,96443.75
2019-02-08T08:49:20.199Z,96442.22
2019-02-08T08:52:48.255Z,96448.89
2019-02-08T08:56:16.175Z,96454.11
2019-02-08T08:59:32.380Z,96448.09
2019-02-08T09:03:00.358Z,96454.80
2019-02-08T09:06:13.949Z,96439.25
2019-02-08T09:09:16.082Z,96448.80
2019-02-08T09:12:02.788Z,96441.23
2019-02-08T09:15:17.140Z,96437.13
2019-02-08T09:18:19.891Z,96420.09
2019-02-08T09:21:47.769Z,96408.09
2019-02-08T09:24:38.888Z,96424.42
2019-02-08T09:28:06.759Z,96417.36
2019-02-08T09:31:08.784Z,96415.33
2019-02-08T09:34:36.772Z,96404.75
2019-02-08T09:37:38.227Z,96391.03
2019-02-08T09:41:06.056Z,96390.73
2019-02-08T09:44:09.492Z,96384.09
2019-02-08T09:47:37.318Z,96384.05
2019-02-08T09:50:39.888Z,96368.75
2019-02-08T09:54:07.788Z,96376.02
2019-02-08T09:57:12.531Z,96375.75
2019-02-08T10:00:40.416Z,96369.84
2019-02-08T10:03:42.122Z,96382.81
2019-02-08T10:07:10.046Z,96380.49
2019-02-08T10:10:14.084Z,96379.48
2019-02-08T10:13:41.920Z,96376.61
2019-02-08T10:16:54.618Z,96382.08
2019-02-08T10:23:26.273Z,96379.38
2019-02-08T10:30:27.084Z,96378.91
2019-02-08T10:33:34.602Z,96369.02
2019-02-08T10:37:02.432Z,96367.48
2019-02-08T10:40:03.534Z,96361.14
2019-02-08T10:43:31.388Z,96357.73
2019-02-08T10:46:32.462Z,96336.27
2019-02-08T10:50:00.527Z,96337.84
2019-02-08T10:53:01.917Z,96318.20
2019-02-08T10:56:29.756Z,96335.75
2019-02-08T10:59:31.071Z,96332.02
2019-02-08T11:02:58.918Z,96317.98
2019-02-08T11:06:00.384Z,96322.24
2019-02-08T11:09:28.253Z,96322.63
2019-02-08T11:12:29.596Z,96315.93
2019-02-08T11:15:57.420Z,96311.45
2019-02-08T11:19:25.460Z,96304.24
2019-02-08T11:22:09.086Z,96300.59
2019-02-08T11:24:51.754Z,96302.53
2019-02-08T11:27:41.488Z,96293.19
2019-02-08T11:30:23.622Z,96270.99
2019-02-08T11:33:13.406Z,96285.19
2019-02-08T11:36:03.209Z,96284.72
2019-02-08T11:38:53.060Z,96289.01
2019-02-08T11:41:43.094Z,96285.53
2019-02-08T11:44:26.361Z,96290.98
2019-02-08T11:47:16.133Z,96262.58
2019-02-08T11:53:20.464Z,96278.14
2019-02-08T11:55:51.123Z,96241.68
2019-02-08T11:58:40.941Z,96263.31
2019-02-08T12:07:40.754Z,96242.84
2019-02-08T12:10:30.473Z,96236.16
2019-02-08T12:13:13.267Z,96228.86
2019-02-08T12:19:04.967Z,96220.87
2019-02-08T12:21:56.075Z,96199.67
2019-02-08T12:24:39.123Z,96190.54
2019-02-08T12:27:28.811Z,96192.83
2019-02-08T12:30:14.043Z,96159.81
2019-02-08T12:33:03.869Z,96191.55
2019-02-08T12:35:46.123Z,96181.73
2019-02-08T12:38:35.779Z,96186.89
2019-02-08T12:41:18.060Z,96186.72
2019-02-08T12:44:08.321Z,96166.98
2019-02-08T12:46:50.954Z,96171.50
2019-02-08T12:49:40.727Z,96164.45
2019-02-08T12:52:23.641Z,96152.47
2019-02-08T12:55:13.355Z,96151.34
2019-02-08T12:57:55.554Z,96151.13
2019-02-08T13:03:40.143Z,96144.67
2019-02-08T13:06:29.908Z,96150.20
2019-02-08T13:09:19.636Z,96140.40
2019-02-08T13:12:03.663Z,96146.02
2019-02-08T13:14:46.024Z,96109.99
2019-02-08T13:17:35.735Z,96130.09
2019-02-08T13:20:44.600Z,96098.22
2019-02-08T13:26:27.545Z,96092.97
2019-02-08T13:29:17.242Z,96097.92
2019-02-08T13:32:25.790Z,96105.67
2019-02-08T13:35:08.982Z,96097.04
2019-02-08T13:38:11.156Z,96070.22
2019-02-08T13:40:53.502Z,96088.41
2019-02-08T13:43:43.223Z,96092.56
2019-02-08T13:46:25.671Z,96080.77
2019-02-08T13:49:15.537Z,96077.88
2019-02-08T13:51:58.396Z,96074.72
2019-02-08T13:54:48.125Z,96075.08
2019-02-08T13:57:30.909Z,96070.86
2019-02-08T14:03:38.865Z,96045.64
2019-02-08T14:06:28.678Z,96052.94
2019-02-08T14:09:18.518Z,96065.64
2019-02-08T14:12:08.508Z,96067.93
2019-02-08T14:18:01.538Z,96046.78
2019-02-08T14:20:43.888Z,96028.42
2019-02-08T14:23:52.428Z,96050.77
2019-02-08T14:26:36.620Z,96053.97
2019-02-08T14:29:19.420Z,96029.63
2019-02-08T14:32:09.212Z,96058.52
2019-02-08T14:34:52.156Z,96061.57
2019-02-08T14:37:41.870Z,96053.30
2019-02-08T14:40:24.710Z,96047.38
2019-02-08T14:43:14.452Z,96043.98
2019-02-08T14:45:56.884Z,96032.13
2019-02-08T14:51:47.692Z,96027.53
2019-02-08T14:54:37.440Z,95992.97
2019-02-08T14:57:20.455Z,96025.77
2019-02-08T15:00:13.499Z,96022.45
2019-02-08T15:02:55.498Z,96028.23
2019-02-08T15:05:45.181Z,96022.91
2019-02-08T15:08:27.543Z,96021.55
2019-02-08T15:11:17.275Z,96002.80
2019-02-08T15:16:34.587Z,95990.09
2019-02-08T15:19:24.357Z,95963.24
2019-02-08T15:22:14.228Z,95979.41
2019-02-08T15:25:04.165Z,95944.95
2019-02-08T15:28:13.129Z,95960.13
2019-02-08T15:31:02.872Z,95986.98
2019-02-08T15:33:52.639Z,95985.11
2019-02-08T15:36:49.184Z,95974.05
2019-02-08T15:39:26.948Z,95972.39
2019-02-08T15:42:16.835Z,95938.86
2019-02-08T15:48:21.573Z,95951.84
2019-02-08T15:51:11.297Z,95953.31
2019-02-08T15:54:01.167Z,95949.41
2019-02-08T15:56:50.966Z,95937.87
2019-02-08T15:59:40.701Z,95931.27
2019-02-08T16:02:30.409Z,95928.59
2019-02-08T16:05:13.609Z,95902.05
2019-02-08T16:08:03.317Z,95921.13
2019-02-08T16:10:45.679Z,95906.45
2019-02-08T16:13:35.419Z,95929.25
2019-02-08T16:16:19.003Z,95899.40
2019-02-08T16:19:08.781Z,95922.20
2019-02-08T16:21:50.756Z,95907.92
2019-02-08T16:24:40.673Z,95901.39
2019-02-08T16:27:30.475Z,95914.15
2019-02-08T16:30:22.575Z,95903.11
2019-02-08T16:36:16.003Z,95882.11
2019-02-08T16:38:58.901Z,95902.92
2019-02-08T16:41:48.705Z,95902.96
2019-02-08T16:44:38.514Z,95892.11
2019-02-08T16:47:28.294Z,95891.63
2019-02-08T16:50:20.285Z,95892.88
2019-02-08T16:53:10.138Z,95891.34
2019-02-08T16:55:59.848Z,95889.85
2019-02-08T16:58:49.546Z,95862.69
2019-02-08T17:01:31.909Z,95885.99
2019-02-08T17:04:21.743Z,95882.80
2019-02-08T17:07:05.635Z,95882.17
2019-02-08T17:12:56.229Z,95894.11
2019-02-08T17:15:45.948Z,95894.33
2019-02-08T17:18:29.601Z,95868.16
2019-02-08T17:21:19.428Z,95881.75
2019-02-08T17:24:02.303Z,95891.95
2019-02-08T17:26:51.995Z,95897.75
2019-02-08T17:29:34.519Z,95890.63
2019-02-08T17:32:24.270Z,95890.06
2019-02-08T17:35:11.283Z,95890.48
2019-02-08T17:38:01.045Z,95902.20
2019-02-08T17:40:44.051Z,95896.33
2019-02-08T17:46:34.828Z,95891.39
2019-02-08T17:49:24.607Z,95864.80
2019-02-08T17:52:06.662Z,95883.20
2019-02-08T17:57:51.810Z,95860.22
2019-02-08T18:01:01.773Z,95880.31
2019-02-08T18:03:51.456Z,95877.39
2019-02-08T18:06:34.244Z,95887.02
2019-02-08T18:09:24.078Z,95898.73
2019-02-08T18:12:13.854Z,95892.20
2019-02-08T18:15:03.870Z,95894.56
2019-02-08T18:18:05.594Z,95887.69
2019-02-08T18:20:48.518Z,95858.87
2019-02-08T18:23:38.336Z,95881.20
2019-02-08T18:26:28.104Z,95887.09
2019-02-08T18:29:17.825Z,95863.16
2019-02-08T18:32:07.773Z,95899.53
2019-02-08T18:34:57.567Z,95894.31
2019-02-08T18:37:47.350Z,95892.77
2019-02-08T18:43:40.766Z,95896.15
2019-02-08T18:46:23.748Z,95902.71
2019-02-08T18:49:13.591Z,95872.38
2019-02-08T18:52:03.354Z,95894.95
2019-02-08T18:54:53.185Z,95889.11
2019-02-08T18:57:42.980Z,95889.52
2019-02-08T19:00:40.033Z,95852.74
2019-02-08T19:03:24.219Z,95884.23
2019-02-08T19:06:14.041Z,95884.97
2019-02-08T19:09:22.880Z,95889.49
2019-02-08T19:12:06.764Z,95888.98
2019-02-08T19:14:56.608Z,95884.77
2019-02-08T19:17:39.321Z,95894.64
2019-02-08T19:20:29.142Z,95896.90
2019-02-08T19:23:18.922Z,95859.89
2019-02-08T19:26:08.633Z,95884.87
2019-02-08T19:28:58.356Z,95894.91
2019-02-08T19:31:48.093Z,95890.33
2019-02-08T19:34:30.094Z,95860.01
2019-02-08T19:37:19.809Z,95887.92
2019-02-08T19:40:06.565Z,95889.73
2019-02-08T19:42:56.302Z,95870.40
2019-02-08T19:45:39.161Z,95888.84
2019-02-08T19:48:28.910Z,95862.93
2019-02-08T19:51:12.795Z,95895.81
2019-02-08T19:54:02.458Z,95861.91
2019-02-08T19:56:45.038Z,95891.45
2019-02-08T19:59:34.841Z,95892.87
2019-02-08T20:02:16.821Z,95882.47
2019-02-08T20:08:24.297Z,95892.48
2019-02-08T20:11:14.262Z,95898.94
2019-02-08T20:14:04.249Z,95896.47
2019-02-08T20:16:54.027Z,95889.26
2019-02-08T20:20:02.913Z,95888.67
2019-02-08T20:22:52.688Z,95887.07
2019-02-08T20:25:42.470Z,95852.52
2019-02-08T20:28:32.275Z,95877.42
2019-02-08T20:31:22.126Z,95878.63
2019-02-08T20:34:11.877Z,95872.46
2019-02-08T20:36:54.729Z,95863.16
2019-02-08T20:39:44.563Z,95859.05
2019-02-08T20:42:34.323Z,95848.42
2019-02-08T20:45:43.080Z,95855.97
2019-02-08T20:48:25.393Z,95842.96
2019-02-08T20:51:15.294Z,95842.63
2019-02-08T20:54:05.109Z,95832.52
2019-02-08T20:56:58.990Z,95838.37
2019-02-08T20:59:39.189Z,95813.42
2019-02-08T21:02:28.998Z,95841.44
2019-02-08T21:05:18.891Z,95831.72
2019-02-08T21:11:22.879Z,95797.91
2019-02-08T21:14:12.709Z,95809.20
2019-02-08T21:17:02.499Z,95814.28
2019-02-08T21:20:11.362Z,95815.50
2019-02-08T21:23:01.105Z,95781.31
2019-02-08T21:25:50.364Z,95803.09
2019-02-08T21:28:35.345Z,95807.55
2019-02-08T21:31:25.142Z,95802.53
2019-02-08T21:34:14.983Z,95785.91
2019-02-08T21:37:04.723Z,95805.98
2019-02-08T21:39:54.520Z,95798.80
2019-02-08T21:42:44.384Z,95796.79
2019-02-08T21:45:35.043Z,95800.57
2019-02-08T21:48:24.890Z,95795.42
2019-02-08T21:51:14.662Z,95793.28
2019-02-08T21:54:23.572Z,95788.86
2019-02-08T21:57:13.398Z,95785.48
2019-02-08T22:00:03.258Z,95768.53
2019-02-08T22:02:53.473Z,95779.56
2019-02-08T22:05:58.306Z,95776.64
2019-02-08T22:08:48.316Z,95781.53
2019-02-08T22:11:32.494Z,95776.34
2019-02-08T22:14:35.006Z,95750.94
2019-02-08T22:17:17.651Z,95784.13
2019-02-08T22:20:09.260Z,95786.81
2019-02-08T22:22:51.185Z,95777.78
2019-02-08T22:25:40.968Z,95790.19
2019-02-08T22:28:23.919Z,95778.52
2019-02-08T22:31:13.688Z,95755.09
2019-02-08T22:33:55.620Z,95789.77
2019-02-08T22:36:45.351Z,95781.73
2019-02-08T22:39:28.199Z,95778.63
2019-02-08T22:42:17.946Z,95759.16
2019-02-08T22:45:08.601Z,95773.47
2019-02-08T22:47:53.860Z,95763.53
2019-02-08T22:50:43.738Z,95760.61
2019-02-08T22:53:33.513Z,95763.98
2019-02-08T22:56:23.280Z,95769.19
2019-02-08T23:02:09.498Z,95730.62
2019-02-08T23:04:59.204Z,95761.38
2019-02-08T23:07:41.474Z,95753.20
2019-02-08T23:10:31.206Z,95759.08
2019-02-08T23:13:14.932Z,95751.89
2019-02-08T23:16:25.170Z,95754.77
2019-02-08T23:19:07.158Z,95753.66
2019-02-08T23:21:56.942Z,95752.77
2019-02-08T23:24:39.142Z,95746.72
2019-02-08T23:27:28.950Z,95745.38
2019-02-08T23:30:11.617Z,95750.97
2019-02-08T23:33:20.221Z,95757.57
2019-02-08T23:39:04.428Z,95757.11
2019-02-08T23:41:54.303Z,95763.25
2019-02-08T23:44:44.108Z,95762.82
2019-02-08T23:47:33.872Z,95736.89
2019-02-08T23:50:24.084Z,95754.38
2019-02-08T23:53:13.788Z,95730.69
2019-02-08T23:55:55.884Z,95743.25
2019-02-08T23:58:45.673Z,95737.85
